Time;durP1;ratioP1;P1;durP2;ratioP2;P2;SDS_P1;SDS_P2;PMS_P1;PMS_P2;Temp;Humidity;BMP_temperature;BMP_pressure;BME280_temperature;BME280_humidity;BME280_pressure;Samples;Min_cycle;Max_cycle;Signal;HPM_P1;HPM_P2
2023/07/04 00:00:35;;;;;;;0.40;0.40;;;;;;;17.90;52.85;100615.75;5227130;28;20937;-87
2023/07/04 00:03:28;;;;;;;2.80;1.17;;;;;;;17.96;52.83;100610.09;5243767;28;20271;-88
2023/07/04 00:06:20;;;;;;;1.65;1.30;;;;;;;17.75;53.63;100613.06;5226096;28;20021;-86
2023/07/04 00:09:11;;;;;;;0.28;0.28;;;;;;;17.87;53.51;100605.31;5237911;28;20105;-87
2023/07/04 00:12:02;;;;;;;0.50;0.50;;;;;;;17.89;53.37;100614.03;5224752;28;20036;-87
2023/07/04 00:14:52;;;;;;;2.35;0.85;;;;;;;17.74;54.09;100615.78;5238668;28;20479;-87
2023/07/04 00:17:43;;;;;;;1.15;0.80;;;;;;;17.69;54.38;100612.56;5217788;28;20039;-86
2023/07/04 00:20:37;;;;;;;0.40;0.40;;;;;;;17.70;54.25;100614.28;5221566;28;20044;-88
2023/07/04 00:23:29;;;;;;;0.30;0.30;;;;;;;17.75;54.28;100620.16;5221079;28;20045;-88
2023/07/04 00:26:24;;;;;;;2.73;0.67;;;;;;;17.87;53.58;100622.09;5219025;28;20404;-88
2023/07/04 00:29:15;;;;;;;0.90;0.90;;;;;;;17.68;54.29;100616.16;5229340;28;20138;-87
2023/07/04 00:32:07;;;;;;;1.25;1.23;;;;;;;17.68;54.72;100613.50;5237469;28;20247;-88
2023/07/04 00:34:59;;;;;;;0.40;0.40;;;;;;;17.56;55.42;100617.72;5242163;28;20070;-87
2023/07/04 00:37:50;;;;;;;0.30;0.30;;;;;;;17.72;54.86;100617.69;5227407;28;20050;-88
2023/07/04 00:40:40;;;;;;;0.40;0.40;;;;;;;17.67;54.94;100623.28;5224994;28;20043;-86
2023/07/04 00:43:45;;;;;;;1.27;1.17;;;;;;;17.58;55.50;100624.66;5229614;28;20843;-87
2023/07/04 00:46:52;;;;;;;0.40;0.40;;;;;;;17.50;56.08;100624.25;5225571;28;20574;-88
2023/07/04 00:49:48;;;;;;;0.30;0.30;;;;;;;17.61;55.64;100629.78;5229168;28;20028;-88
2023/07/04 00:52:39;;;;;;;1.38;1.17;;;;;;;17.57;55.75;100622.09;5227250;28;20128;-86
2023/07/04 00:55:33;;;;;;;0.40;0.40;;;;;;;17.49;55.96;100616.38;5238225;28;20092;-88
2023/07/04 00:58:24;;;;;;;0.40;0.40;;;;;;;17.31;56.92;100614.69;5256608;28;20063;-88
2023/07/04 01:01:19;;;;;;;0.75;0.50;;;;;;;17.22;57.73;100614.38;5246432;28;20085;-86
2023/07/04 01:04:10;;;;;;;0.32;0.32;;;;;;;17.20;57.74;100617.13;5243403;28;20032;-86
2023/07/04 01:07:41;;;;;;;0.50;0.50;;;;;;;17.13;57.91;100610.44;5259671;28;20077;-87
2023/07/04 01:10:37;;;;;;;0.93;0.60;;;;;;;17.24;57.90;100615.13;5249559;28;20057;-88
2023/07/04 01:13:37;;;;;;;0.68;0.68;;;;;;;16.95;58.97;100618.50;5237595;28;20036;-87
2023/07/04 01:16:29;;;;;;;0.30;0.30;;;;;;;17.11;58.00;100614.97;5238555;28;20013;-87
2023/07/04 01:19:30;;;;;;;0.32;0.32;;;;;;;17.09;58.38;100615.06;5239309;28;20278;-88
2023/07/04 01:22:24;;;;;;;0.65;0.65;;;;;;;17.04;58.68;100613.63;5235498;28;20020;-88
2023/07/04 01:25:35;;;;;;;0.90;0.90;;;;;;;16.91;59.13;100616.91;5213181;28;20032;-87
2023/07/04 01:28:29;;;;;;;1.42;1.33;;;;;;;17.02;58.72;100615.50;5223649;28;20047;-88
2023/07/04 01:31:23;;;;;;;1.75;1.38;;;;;;;16.93;59.26;100616.88;5225825;28;20040;-88
2023/07/04 01:34:17;;;;;;;0.40;0.40;;;;;;;16.94;59.28;100619.41;5230525;28;20704;-87
2023/07/04 01:37:08;;;;;;;1.58;1.48;;;;;;;16.73;60.20;100617.94;5230473;28;20031;-88
2023/07/04 01:39:59;;;;;;;0.30;0.30;;;;;;;16.59;60.75;100616.03;5212482;28;20054;-86
2023/07/04 01:42:50;;;;;;;0.40;0.40;;;;;;;16.67;60.26;100614.66;5232167;28;20105;-86
2023/07/04 01:45:45;;;;;;;6.60;1.70;;;;;;;16.67;60.41;100621.75;5211737;28;20037;-86
2023/07/04 01:48:37;;;;;;;7.95;0.57;;;;;;;16.58;60.87;100615.16;5222341;28;20062;-87
2023/07/04 01:51:37;;;;;;;4.43;0.77;;;;;;;16.68;60.47;100616.38;5220197;28;20375;-87
2023/07/04 01:54:28;;;;;;;0.30;0.30;;;;;;;16.51;61.18;100612.00;5229364;28;20048;-89
2023/07/04 01:57:19;;;;;;;0.73;0.73;;;;;;;16.79;60.38;100622.88;5217978;28;20028;-88
2023/07/04 02:00:12;;;;;;;0.60;0.60;;;;;;;16.51;61.47;100613.78;5219299;28;20036;-87
2023/07/04 02:03:04;;;;;;;0.30;0.30;;;;;;;16.60;61.25;100618.59;5219179;28;20047;-86
2023/07/04 02:05:57;;;;;;;0.60;0.60;;;;;;;16.64;61.29;100622.78;5251338;28;20038;-86
2023/07/04 02:08:48;;;;;;;0.45;0.45;;;;;;;16.60;61.37;100618.59;5214508;28;20032;-87
2023/07/04 02:11:39;;;;;;;2.75;1.75;;;;;;;16.50;61.71;100617.38;5217575;28;20036;-87
2023/07/04 02:14:29;;;;;;;1.05;1.00;;;;;;;16.47;61.63;100628.13;5211757;28;20036;-87
2023/07/04 02:17:20;;;;;;;2.00;0.88;;;;;;;16.44;62.38;100623.00;5220444;28;20016;-86
2023/07/04 02:20:11;;;;;;;0.47;0.47;;;;;;;16.53;61.91;100617.22;5224287;28;20036;-86
2023/07/04 02:23:02;;;;;;;1.20;1.10;;;;;;;16.46;62.12;100621.13;5226455;28;20088;-89
2023/07/04 02:25:54;;;;;;;0.73;0.73;;;;;;;16.47;62.28;100623.69;5223386;28;20870;-87
2023/07/04 02:28:45;;;;;;;0.93;0.90;;;;;;;16.40;62.09;100621.47;5211012;28;20047;-86
2023/07/04 02:31:36;;;;;;;3.20;1.42;;;;;;;16.20;63.57;100631.28;5217772;28;20037;-87
2023/07/04 02:34:26;;;;;;;0.70;0.70;;;;;;;16.20;63.93;100626.00;5231888;28;20044;-88
2023/07/04 02:37:17;;;;;;;0.50;0.43;;;;;;;16.21;63.56;100625.91;5237810;28;20120;-87
2023/07/04 02:40:08;;;;;;;0.98;0.50;;;;;;;16.09;64.08;100623.91;5230145;28;20074;-87
2023/07/04 02:42:59;;;;;;;5.55;2.13;;;;;;;16.04;64.55;100626.81;5218516;28;20028;-85
2023/07/04 02:45:50;;;;;;;2.65;1.65;;;;;;;16.00;64.70;100637.63;5218425;28;20048;-87
2023/07/04 02:48:41;;;;;;;0.55;0.55;;;;;;;16.02;64.23;100628.66;5231687;28;20047;-88
2023/07/04 02:51:33;;;;;;;0.20;0.20;;;;;;;16.17;63.97;100631.44;5212971;28;20032;-87
2023/07/04 02:54:23;;;;;;;3.13;1.92;;;;;;;15.87;65.69;100625.00;5216171;28;20035;-87
2023/07/04 02:57:16;;;;;;;1.33;1.27;;;;;;;15.96;65.67;100629.00;5249996;28;20024;-86
2023/07/04 03:00:07;;;;;;;0.60;0.60;;;;;;;15.89;65.83;100627.59;5223206;28;20625;-87
2023/07/04 03:02:59;;;;;;;0.85;0.85;;;;;;;15.99;65.47;100623.53;5214510;28;20399;-87
2023/07/04 03:05:50;;;;;;;7.90;1.45;;;;;;;15.97;65.45;100622.75;5233782;28;20677;-87
2023/07/04 03:08:41;;;;;;;0.65;0.65;;;;;;;15.87;66.22;100625.00;5230894;28;20734;-87
2023/07/04 03:11:32;;;;;;;0.32;0.32;;;;;;;15.89;66.15;100619.66;5234226;28;20062;-86
2023/07/04 03:14:23;;;;;;;0.40;0.40;;;;;;;15.98;65.10;100621.84;5209586;28;20820;-87
2023/07/04 03:17:14;;;;;;;0.43;0.43;;;;;;;15.85;66.44;100631.31;5215285;28;20028;-87
2023/07/04 03:20:10;;;;;;;1.98;1.77;;;;;;;15.76;67.03;100629.09;5214290;28;20434;-88
2023/07/04 03:23:00;;;;;;;1.80;0.70;;;;;;;15.76;67.04;100639.69;5229071;28;20025;-87
2023/07/04 03:25:51;;;;;;;0.85;0.85;;;;;;;15.73;67.36;100638.91;5217690;28;20045;-87
2023/07/04 03:28:42;;;;;;;0.30;0.30;;;;;;;15.68;67.85;100632.13;5221562;28;20406;-86
2023/07/04 03:31:33;;;;;;;2.65;1.25;;;;;;;15.74;67.45;100631.81;5215899;28;20415;-88
2023/07/04 03:34:24;;;;;;;1.67;1.58;;;;;;;15.72;67.56;100631.91;5215902;28;20415;-86
2023/07/04 03:37:14;;;;;;;0.43;0.43;;;;;;;15.73;67.39;100624.81;5228061;28;20016;-88
2023/07/04 03:40:08;;;;;;;1.38;1.27;;;;;;;15.78;67.14;100625.47;5219564;28;20127;-86
2023/07/04 03:42:59;;;;;;;0.40;0.40;;;;;;;15.65;67.99;100625.22;5221320;28;20054;-87
2023/07/04 03:45:50;;;;;;;0.50;0.50;;;;;;;15.48;68.77;100628.69;5224403;28;20037;-87
2023/07/04 03:48:42;;;;;;;0.47;0.47;;;;;;;15.62;68.38;100635.09;5226030;28;20058;-87
2023/07/04 03:51:33;;;;;;;1.95;1.58;;;;;;;15.54;68.56;100635.47;5217796;28;20504;-86
2023/07/04 03:54:24;;;;;;;0.55;0.55;;;;;;;15.62;68.30;100628.00;5236720;28;20029;-87
2023/07/04 03:57:15;;;;;;;0.80;0.65;;;;;;;15.56;68.71;100636.25;5237325;28;20127;-87
2023/07/04 04:00:09;;;;;;;1.98;1.85;;;;;;;15.54;68.60;100638.09;5237338;28;20040;-87
2023/07/04 04:03:00;;;;;;;1.35;0.77;;;;;;;15.58;68.72;100637.00;5224343;28;20079;-88
2023/07/04 04:05:51;;;;;;;2.00;1.25;;;;;;;15.47;69.14;100642.00;5219543;28;20048;-87
2023/07/04 04:08:42;;;;;;;0.50;0.50;;;;;;;15.34;70.01;100642.56;5232313;28;20070;-87
2023/07/04 04:11:33;;;;;;;0.63;0.63;;;;;;;15.40;69.63;100639.66;5217638;28;20032;-87
2023/07/04 04:14:24;;;;;;;0.75;0.50;;;;;;;15.56;68.87;100638.91;5226746;28;20059;-88
2023/07/04 04:17:15;;;;;;;0.88;0.82;;;;;;;15.52;69.20;100646.13;5213863;28;20017;-86
2023/07/04 04:20:06;;;;;;;1.38;0.50;;;;;;;15.56;69.05;100646.84;5226737;28;20025;-87
2023/07/04 04:22:58;;;;;;;0.50;0.50;;;;;;;15.58;68.85;100647.59;5218305;28;20731;-88
2023/07/04 04:25:50;;;;;;;1.73;1.02;;;;;;;15.53;69.18;100652.25;5227933;28;20051;-89
2023/07/04 04:28:40;;;;;;;0.25;0.25;;;;;;;15.51;69.58;100654.13;5220057;28;20033;-90
2023/07/04 04:31:37;;;;;;;4.90;2.80;;;;;;;15.50;69.64;100649.75;5219150;28;20098;-88
2023/07/04 04:34:28;;;;;;;2.63;1.52;;;;;;;15.50;69.72;100657.69;5244595;28;20910;-88
2023/07/04 04:37:18;;;;;;;0.77;0.77;;;;;;;15.59;69.39;100667.81;5210993;28;20021;-88
2023/07/04 04:40:10;;;;;;;0.40;0.40;;;;;;;15.55;69.70;100661.81;5236269;28;20048;-88
2023/07/04 04:43:02;;;;;;;0.85;0.85;;;;;;;15.76;68.78;100668.78;5223634;28;20024;-88
2023/07/04 04:45:53;;;;;;;0.55;0.55;;;;;;;15.64;69.21;100671.09;5233332;28;20091;-87
2023/07/04 04:48:43;;;;;;;1.08;0.85;;;;;;;15.72;69.39;100671.59;5232856;28;20059;-87
2023/07/04 04:51:34;;;;;;;0.30;0.30;;;;;;;15.72;69.00;100666.31;5235107;28;20640;-86
2023/07/04 04:54:25;;;;;;;1.23;1.15;;;;;;;15.67;69.32;100670.94;5225252;28;20044;-87
2023/07/04 04:57:16;;;;;;;0.30;0.25;;;;;;;15.70;69.61;100670.81;5232368;28;20029;-86
2023/07/04 05:00:08;;;;;;;1.88;1.52;;;;;;;15.78;68.85;100666.91;5218656;28;20024;-87
2023/07/04 05:02:59;;;;;;;2.03;1.45;;;;;;;15.57;69.64;100669.69;5222718;28;20051;-87
2023/07/04 05:05:50;;;;;;;1.10;0.75;;;;;;;15.67;70.01;100683.31;5225971;28;20121;-87
2023/07/04 05:08:41;;;;;;;0.65;0.65;;;;;;;15.72;69.46;100673.34;5228066;28;20040;-86
2023/07/04 05:11:32;;;;;;;0.68;0.68;;;;;;;15.77;69.12;100675.78;5241961;28;20085;-86
2023/07/04 05:14:23;;;;;;;1.02;0.95;;;;;;;15.65;69.72;100671.94;5220832;28;20048;-87
2023/07/04 05:17:15;;;;;;;2.63;1.80;;;;;;;15.68;69.18;100688.53;5221855;28;20534;-86
2023/07/04 05:20:06;;;;;;;0.40;0.40;;;;;;;15.82;68.96;100681.72;5215972;28;20036;-87
2023/07/04 05:22:57;;;;;;;0.40;0.40;;;;;;;15.86;68.91;100675.34;5213075;28;20028;-86
2023/07/04 05:26:08;;;;;;;5.03;0.68;;;;;;;15.79;69.10;100673.91;5215922;28;20060;-87
2023/07/04 05:28:59;;;;;;;11.55;1.05;;;;;;;15.83;69.01;100680.75;5228551;28;20032;-86
2023/07/04 05:31:49;;;;;;;1.50;1.08;;;;;;;15.77;69.76;100681.06;5232186;28;20540;-86
2023/07/04 05:34:40;;;;;;;2.00;1.67;;;;;;;15.91;68.52;100677.78;5212161;28;20040;-86
2023/07/04 05:37:31;;;;;;;1.80;1.40;;;;;;;15.86;69.11;100688.59;5217520;28;20591;-86
2023/07/04 05:40:22;;;;;;;1.05;1.05;;;;;;;15.91;69.11;100683.91;5212561;28;20437;-86
2023/07/04 05:43:13;;;;;;;0.30;0.30;;;;;;;15.87;69.52;100691.16;5220071;28;20075;-86
2023/07/04 05:46:05;;;;;;;0.60;0.60;;;;;;;15.99;68.53;100689.66;5220912;28;20012;-87
2023/07/04 05:48:57;;;;;;;0.98;0.98;;;;;;;16.07;68.40;100696.41;5223951;28;20090;-87
2023/07/04 05:51:48;;;;;;;0.85;0.85;;;;;;;15.86;69.43;100699.16;5229749;28;20032;-86
2023/07/04 05:54:39;;;;;;;0.88;0.88;;;;;;;15.94;69.18;100702.28;5216668;28;20064;-86
2023/07/04 05:57:31;;;;;;;2.13;1.35;;;;;;;15.95;69.04;100704.00;5208149;28;20043;-87
2023/07/04 06:00:22;;;;;;;0.40;0.40;;;;;;;15.96;69.01;100705.72;5215774;28;20028;-87
2023/07/04 06:03:17;;;;;;;8.30;0.90;;;;;;;16.03;68.73;100707.13;5233094;28;20031;-86
2023/07/04 06:06:19;;;;;;;0.73;0.68;;;;;;;16.02;68.95;100713.34;5226645;28;20028;-87
2023/07/04 06:09:15;;;;;;;7.47;3.38;;;;;;;16.02;68.66;100721.28;5219703;28;20039;-86
2023/07/04 06:12:07;;;;;;;0.30;0.30;;;;;;;16.10;68.45;100720.03;5223186;28;20047;-87
2023/07/04 06:14:58;;;;;;;0.32;0.32;;;;;;;16.17;68.62;100719.66;5205673;28;20413;-87
2023/07/04 06:17:48;;;;;;;0.57;0.57;;;;;;;16.24;67.92;100720.19;5216945;28;20048;-87
2023/07/04 06:20:39;;;;;;;0.75;0.75;;;;;;;16.26;67.86;100726.28;5226704;28;20040;-87
2023/07/04 06:23:30;;;;;;;7.22;1.58;;;;;;;16.27;68.20;100728.00;5204848;28;20124;-87
2023/07/04 06:26:32;;;;;;;;;;;;;;;;;;;;;
2023/07/04 06:29:23;;;;;;;1.75;1.15;;;;;;;16.23;67.68;100726.44;5225602;28;20127;-87
2023/07/04 06:32:14;;;;;;;1.05;0.98;;;;;;;16.33;67.08;100725.03;5212090;28;20064;-87
2023/07/04 06:35:05;;;;;;;1.25;1.10;;;;;;;16.20;67.00;100729.25;5212273;28;20075;-86
2023/07/04 06:37:57;;;;;;;0.63;0.63;;;;;;;16.41;66.93;100729.06;5214557;28;20024;-86
2023/07/04 06:40:56;;;;;;;4.07;1.58;;;;;;;16.30;67.02;100737.56;5215819;28;20040;-87
2023/07/04 06:43:47;;;;;;;1.50;1.13;;;;;;;16.38;67.15;100735.38;5210989;28;20052;-87
2023/07/04 06:46:38;;;;;;;1.65;1.55;;;;;;;16.48;66.71;100730.50;5216393;28;20039;-87
2023/07/04 06:49:29;;;;;;;2.20;1.35;;;;;;;16.45;66.47;100746.53;5210693;28;20047;-87
2023/07/04 06:52:19;;;;;;;0.40;0.40;;;;;;;16.49;65.95;100740.13;5220070;28;20036;-87
2023/07/04 06:55:10;;;;;;;1.45;1.35;;;;;;;16.61;65.60;100731.53;5205630;28;20071;-85
2023/07/04 06:58:04;;;;;;;1.23;1.13;;;;;;;16.63;65.37;100734.97;5214412;28;20028;-86
2023/07/04 07:00:55;;;;;;;0.50;0.50;;;;;;;16.68;64.99;100738.22;5216632;28;20127;-87
2023/07/04 07:03:46;;;;;;;7.10;2.67;;;;;;;16.61;65.68;100736.84;5204488;28;20154;-87
2023/07/04 07:06:39;;;;;;;1.27;1.20;;;;;;;16.62;65.60;100737.69;5213616;28;20024;-88
2023/07/04 07:09:35;;;;;;;0.73;0.73;;;;;;;16.72;65.49;100741.56;5221557;28;20351;-88
2023/07/04 07:12:25;;;;;;;2.30;1.08;;;;;;;16.73;65.39;100742.44;5226108;28;20020;-88
2023/07/04 07:15:16;;;;;;;1.13;1.02;;;;;;;16.84;65.06;100740.06;5224768;28;20045;-88
2023/07/04 07:18:07;;;;;;;1.60;0.95;;;;;;;16.82;64.70;100749.88;5236797;28;20016;-87
2023/07/04 07:20:58;;;;;;;0.63;0.63;;;;;;;16.90;64.32;100747.69;5232377;28;20055;-88
2023/07/04 07:23:50;;;;;;;1.65;1.33;;;;;;;17.02;64.39;100750.66;5224152;28;20156;-88
2023/07/04 07:26:41;;;;;;;6.40;0.50;;;;;;;17.04;63.97;100759.41;5224290;28;20185;-88
2023/07/04 07:29:32;;;;;;;0.82;0.80;;;;;;;17.11;63.77;100758.13;5219865;28;20055;-87
2023/07/04 07:32:23;;;;;;;1.05;0.63;;;;;;;17.16;63.38;100761.38;5249410;28;20032;-88
2023/07/04 07:35:13;;;;;;;1.08;0.98;;;;;;;17.11;63.45;100766.91;5233589;28;20024;-86
2023/07/04 07:38:04;;;;;;;0.95;0.88;;;;;;;17.13;63.15;100764.22;5223927;28;20046;-90
2023/07/04 07:40:58;;;;;;;1.05;0.90;;;;;;;17.20;62.86;100765.59;5233711;28;20033;-87
2023/07/04 07:43:57;;;;;;;4.28;0.63;;;;;;;17.18;63.53;100764.81;5212589;28;20090;-86
2023/07/04 07:47:14;;;;;;;;;;;;;;;;;;;;;
2023/07/04 07:50:14;;;;;;;0.70;0.45;;;;;;;17.21;62.71;100775.25;5251586;28;20087;-87
2023/07/04 07:53:04;;;;;;;0.38;0.38;;;;;;;17.35;62.08;100768.31;5235303;28;20056;-88
2023/07/04 07:55:55;;;;;;;0.70;0.70;;;;;;;17.41;61.35;100773.28;5241360;28;20082;-87
2023/07/04 07:58:47;;;;;;;1.27;1.15;;;;;;;17.39;61.32;100769.88;5248300;28;20103;-86
2023/07/04 08:01:38;;;;;;;3.10;1.05;;;;;;;17.30;60.96;100769.44;5210768;28;20383;-88
2023/07/04 08:04:29;;;;;;;8.43;1.52;;;;;;;17.35;60.83;100763.91;5207516;28;20040;-87
2023/07/04 08:07:20;;;;;;;0.40;0.40;;;;;;;17.48;59.47;100758.75;5211099;28;20027;-88
2023/07/04 08:10:10;;;;;;;0.50;0.50;;;;;;;17.57;58.78;100768.00;5210165;28;20041;-88
2023/07/04 08:13:01;;;;;;;0.45;0.45;;;;;;;17.51;59.74;100763.88;5222900;28;20543;-88
2023/07/04 08:15:56;;;;;;;0.28;0.28;;;;;;;17.65;59.33;100759.59;5220354;28;20044;-88
2023/07/04 08:18:47;;;;;;;0.63;0.63;;;;;;;17.65;59.61;100751.63;5220880;28;20068;-88
2023/07/04 08:21:37;;;;;;;4.95;1.15;;;;;;;17.75;58.06;100750.19;5226659;28;20032;-89
2023/07/04 08:24:28;;;;;;;3.53;1.58;;;;;;;17.72;57.98;100751.22;5225172;28;20296;-87
2023/07/04 08:27:19;;;;;;;0.98;0.93;;;;;;;17.79;58.01;100746.44;5221117;28;20054;-86
2023/07/04 08:30:10;;;;;;;0.47;0.47;;;;;;;17.90;57.59;100749.31;5213232;28;20044;-88
2023/07/04 08:33:01;;;;;;;0.75;0.60;;;;;;;17.99;57.38;100752.41;5227384;28;20028;-87
2023/07/04 08:36:07;;;;;;;0.47;0.47;;;;;;;17.90;56.27;100754.59;5217617;28;20037;-88
2023/07/04 08:38:58;;;;;;;2.30;1.23;;;;;;;17.96;56.65;100757.91;5221938;28;20036;-86
2023/07/04 08:41:59;;;;;;;0.52;0.52;;;;;;;18.08;56.27;100752.75;5235170;28;20702;-87
2023/07/04 08:44:52;;;;;;;0.30;0.30;;;;;;;18.11;54.88;100757.00;5222273;28;20079;-87
2023/07/04 08:47:43;;;;;;;0.30;0.30;;;;;;;18.15;54.47;100763.84;5233380;28;20637;-87
2023/07/04 08:50:38;;;;;;;0.35;0.35;;;;;;;18.09;53.81;100764.22;5229990;28;20056;-87
2023/07/04 08:53:30;;;;;;;0.50;0.50;;;;;;;18.19;54.11;100773.34;5217813;28;20049;-87
2023/07/04 08:56:34;;;;;;;0.73;0.65;;;;;;;18.19;52.71;100773.34;5209071;28;20025;-88
2023/07/04 08:59:37;;;;;;;0.47;0.47;;;;;;;18.28;52.51;100773.75;5214908;28;20032;-87
2023/07/04 09:03:05;;;;;;;0.60;0.60;;;;;;;18.32;51.96;100778.81;5222163;28;20029;-89
2023/07/04 09:06:00;;;;;;;0.93;0.93;;;;;;;18.48;52.32;100776.06;5222744;28;20040;-88
2023/07/04 09:09:24;;;;;;;1.35;1.05;;;;;;;18.48;53.61;100776.06;5212038;28;20044;-88
2023/07/04 09:12:16;;;;;;;0.20;0.20;;;;;;;18.40;52.04;100778.34;5234214;28;20055;-87
2023/07/04 09:15:36;;;;;;;0.30;0.30;;;;;;;18.54;52.19;100790.81;5252141;28;20059;-86
2023/07/04 09:18:29;;;;;;;0.60;0.60;;;;;;;18.59;51.80;100798.50;5241403;28;20249;-86
2023/07/04 09:21:22;;;;;;;0.25;0.25;;;;;;;18.58;51.24;100807.41;5252627;28;20016;-85
2023/07/04 09:24:13;;;;;;;0.37;0.37;;;;;;;18.72;50.99;100812.75;5228601;28;20040;-86
2023/07/04 09:27:05;;;;;;;0.30;0.30;;;;;;;18.81;50.39;100809.53;5239036;28;20083;-87
2023/07/04 09:29:57;;;;;;;0.95;0.82;;;;;;;18.81;49.72;100798.91;5234872;28;20132;-87
2023/07/04 09:32:48;;;;;;;0.63;0.47;;;;;;;18.80;48.35;100796.34;5229331;28;20043;-86
2023/07/04 09:35:39;;;;;;;0.38;0.38;;;;;;;18.81;47.43;100790.09;5235238;28;20036;-87
2023/07/04 09:38:57;;;;;;;0.40;0.40;;;;;;;18.93;47.07;100799.16;5231870;28;20064;-88
2023/07/04 09:41:57;;;;;;;11.05;1.10;;;;;;;18.95;47.46;100787.47;5236833;28;20107;-87
2023/07/04 09:44:54;;;;;;;0.43;0.43;;;;;;;19.01;47.74;100795.06;5237575;28;20041;-87
2023/07/04 09:47:45;;;;;;;0.65;0.65;;;;;;;19.05;47.30;100786.91;5223836;28;20032;-88
2023/07/04 09:50:37;;;;;;;0.32;0.32;;;;;;;19.15;48.15;100788.06;5217692;28;20083;-88
2023/07/04 09:53:28;;;;;;;0.30;0.30;;;;;;;19.07;47.53;100783.19;5216173;28;20529;-89
2023/07/04 09:56:26;;;;;;;1.02;0.93;;;;;;;19.07;48.45;100785.03;5223053;28;20098;-86
2023/07/04 09:59:22;;;;;;;0.52;0.52;;;;;;;19.16;49.25;100776.47;5219092;28;20097;-88
2023/07/04 10:02:25;;;;;;;2.70;1.52;;;;;;;19.29;49.03;100787.22;5209544;28;20136;-88
2023/07/04 10:05:23;;;;;;;0.20;0.20;;;;;;;19.43;49.57;100778.31;5240430;28;20041;-88
2023/07/04 10:08:15;;;;;;;0.68;0.68;;;;;;;19.54;50.16;100775.00;5214074;28;20499;-88
2023/07/04 10:11:06;;;;;;;0.35;0.35;;;;;;;19.56;49.29;100779.28;5218420;28;20032;-88
2023/07/04 10:14:00;;;;;;;0.20;0.20;;;;;;;19.60;49.19;100782.59;5224750;28;20399;-88
2023/07/04 10:16:51;;;;;;;0.32;0.32;;;;;;;19.66;48.34;100779.53;5216231;28;20032;-88
2023/07/04 10:19:44;;;;;;;0.30;0.30;;;;;;;19.77;48.38;100782.34;5219563;28;20032;-88
2023/07/04 10:22:38;;;;;;;1.65;0.50;;;;;;;19.90;49.00;100786.91;5253683;28;20081;-88
2023/07/04 10:25:30;;;;;;;;;;;;;;;19.90;49.20;100785.09;5230836;28;20060;-88
2023/07/04 10:28:25;;;;;;;1.25;1.15;;;;;;;19.89;49.67;100785.19;5233831;28;20574;-87
2023/07/04 10:31:21;;;;;;;1.48;1.27;;;;;;;19.92;49.44;100779.66;5226917;28;20022;-88
2023/07/04 10:34:18;;;;;;;0.30;0.30;;;;;;;19.94;49.27;100780.44;5214247;28;20656;-87
2023/07/04 10:37:34;;;;;;;0.88;0.60;;;;;;;20.05;48.57;100780.56;5222410;28;20027;-88
2023/07/04 10:40:27;;;;;;;0.60;0.60;;;;;;;19.94;48.09;100793.75;5206662;28;20032;-87
2023/07/04 10:43:30;;;;;;;0.75;0.75;;;;;;;19.96;48.21;100787.34;5214536;28;20031;-88
2023/07/04 10:46:25;;;;;;;0.83;0.83;;;;;;;20.06;48.67;100787.59;5228242;28;20086;-88
2023/07/04 10:49:19;;;;;;;0.47;0.47;;;;;;;20.16;47.84;100781.66;5217503;28;20064;-88
2023/07/04 10:52:17;;;;;;;4.00;1.67;;;;;;;20.22;47.89;100797.22;5214922;28;20032;-87
2023/07/04 10:55:08;;;;;;;0.63;0.50;;;;;;;20.26;48.36;100774.78;5213508;28;20036;-88
2023/07/04 10:58:11;;;;;;;1.05;0.95;;;;;;;20.34;48.12;100780.44;5214822;28;20032;-87
2023/07/04 11:01:33;;;;;;;0.93;0.67;;;;;;;20.43;47.67;100774.50;5211051;28;20135;-88
2023/07/04 11:04:29;;;;;;;0.57;0.57;;;;;;;20.51;47.44;100768.63;5213301;28;20494;-88
2023/07/04 11:07:23;;;;;;;0.30;0.30;;;;;;;20.65;47.98;100783.66;5217149;28;20395;-88
2023/07/04 11:10:15;;;;;;;0.52;0.52;;;;;;;20.74;47.44;100782.22;5220569;28;20037;-88
2023/07/04 11:13:06;;;;;;;0.70;0.70;;;;;;;20.59;47.03;100786.75;5228924;28;20028;-90
2023/07/04 11:16:03;;;;;;;0.43;0.43;;;;;;;20.77;46.82;100770.50;5221697;28;20039;-88
2023/07/04 11:19:04;;;;;;;0.20;0.20;;;;;;;20.84;47.19;100777.94;5224587;28;20036;-88
2023/07/04 11:22:04;;;;;;;0.68;0.68;;;;;;;20.96;47.08;100776.22;5229700;28;20037;-89
2023/07/04 11:25:18;;;;;;;1.95;0.63;;;;;;;20.88;46.55;100768.78;5210383;28;20051;-88
2023/07/04 11:28:25;;;;;;;2.58;2.28;;;;;;;20.88;46.56;100778.59;5220062;28;20558;-89
2023/07/04 11:31:25;;;;;;;0.50;0.47;;;;;;;21.02;45.52;100770.50;5221210;28;20028;-89
2023/07/04 11:34:18;;;;;;;0.30;0.30;;;;;;;21.12;45.95;100769.81;5221570;28;20072;-91
2023/07/04 11:37:09;;;;;;;;;;;;;;;21.34;46.12;100772.69;5240917;28;20403;-88
2023/07/04 11:40:10;;;;;;;0.38;0.38;;;;;;;21.29;45.19;100766.78;5222211;28;19934;-88
2023/07/04 11:43:17;;;;;;;0.80;0.60;;;;;;;21.37;45.82;100768.94;5219980;28;20070;-88
2023/07/04 11:46:24;;;;;;;2.80;1.33;;;;;;;21.53;44.93;100757.97;5224228;28;20032;-89
2023/07/04 11:49:20;;;;;;;0.30;0.30;;;;;;;21.48;43.51;100768.16;5219659;28;20033;-87
2023/07/04 11:52:27;;;;;;;0.30;0.30;;;;;;;21.60;44.09;100753.94;5226002;28;20398;-90
2023/07/04 11:55:29;;;;;;;0.65;0.65;;;;;;;21.72;44.33;100756.66;5214527;28;20681;-87
2023/07/04 11:58:20;;;;;;;0.85;0.80;;;;;;;21.91;44.88;100765.03;5232088;28;20051;-87
2023/07/04 12:01:17;;;;;;;0.80;0.80;;;;;;;21.99;44.35;100765.31;5236449;28;20051;-89
2023/07/04 12:04:08;;;;;;;0.43;0.43;;;;;;;21.87;43.42;100760.88;5234283;28;20051;-89
2023/07/04 12:07:04;;;;;;;0.98;0.98;;;;;;;21.98;43.18;100762.75;5237752;28;20017;-91
2023/07/04 12:10:01;;;;;;;0.30;0.30;;;;;;;22.12;43.00;100759.03;5225820;28;20067;-87
2023/07/04 12:13:01;;;;;;;1.08;0.95;;;;;;;21.92;43.60;100757.84;5216485;28;20139;-86
2023/07/04 12:15:56;;;;;;;0.93;0.80;;;;;;;22.19;43.25;100760.25;5246508;28;20029;-89
2023/07/04 12:18:46;;;;;;;0.68;0.68;;;;;;;22.31;42.85;100754.00;5223506;28;20037;-88
2023/07/04 12:21:42;;;;;;;1.58;1.30;;;;;;;22.43;43.10;100754.91;5223014;28;20098;-90
2023/07/04 12:24:33;;;;;;;0.60;0.60;;;;;;;22.52;42.52;100757.84;5227951;28;20044;-89
2023/07/04 12:27:28;;;;;;;0.30;0.30;;;;;;;22.49;42.70;100748.25;5230035;28;20024;-89
2023/07/04 12:30:19;;;;;;;0.43;0.43;;;;;;;22.71;42.13;100751.91;5235754;28;20155;-90
2023/07/04 12:33:31;;;;;;;0.68;0.68;;;;;;;22.87;42.14;100755.09;5227021;28;20030;-88
2023/07/04 12:36:31;;;;;;;1.25;0.55;;;;;;;22.77;41.86;100754.09;5239140;28;20024;-87
2023/07/04 12:39:23;;;;;;;12.02;1.95;;;;;;;22.73;41.57;100744.63;5225121;28;20033;-87
2023/07/04 12:42:40;;;;;;;1.42;1.27;;;;;;;23.01;41.32;100739.78;5220929;28;20038;-89
2023/07/04 12:45:31;;;;;;;6.45;1.58;;;;;;;22.84;41.41;100733.97;5220827;28;20109;-89
2023/07/04 12:48:22;;;;;;;0.65;0.65;;;;;;;22.84;42.05;100744.66;5236887;28;20078;-90
2023/07/04 12:51:19;;;;;;;1.38;1.27;;;;;;;22.98;41.86;100737.34;5225537;28;20035;-89
2023/07/04 12:54:13;;;;;;;1.20;1.10;;;;;;;23.04;41.65;100739.53;5223259;28;20035;-88
2023/07/04 12:57:04;;;;;;;0.30;0.30;;;;;;;23.20;41.71;100740.03;5225412;28;20025;-90
2023/07/04 13:00:12;;;;;;;0.68;0.68;;;;;;;23.21;41.16;100735.56;5228850;28;20044;-86
2023/07/04 13:03:08;;;;;;;0.52;0.47;;;;;;;23.17;41.20;100739.41;5224995;28;20375;-88
2023/07/04 13:05:59;;;;;;;0.55;0.55;;;;;;;23.15;40.92;100736.00;5223137;28;20040;-86
2023/07/04 13:08:53;;;;;;;0.95;0.90;;;;;;;23.37;41.14;100735.16;5210807;28;20116;-86
2023/07/04 13:11:44;;;;;;;0.30;0.30;;;;;;;23.46;40.74;100726.38;5213643;28;20025;-85
2023/07/04 13:14:35;;;;;;;0.63;0.63;;;;;;;23.45;40.57;100724.66;5214741;28;20040;-87
2023/07/04 13:17:26;;;;;;;0.38;0.38;;;;;;;23.33;39.54;100728.34;5216432;28;20021;-86
2023/07/04 13:20:19;;;;;;;0.85;0.85;;;;;;;23.48;38.47;100732.47;5219968;28;20058;-88
2023/07/04 13:23:22;;;;;;;1.33;1.08;;;;;;;23.41;38.10;100731.25;5216745;28;20020;-89
2023/07/04 13:26:18;;;;;;;1.08;0.95;;;;;;;23.53;37.82;100724.88;5236582;28;20165;-86
2023/07/04 13:29:18;;;;;;;0.50;0.50;;;;;;;23.66;38.55;100716.69;5215871;28;20033;-87
2023/07/04 13:32:41;;;;;;;1.13;0.80;;;;;;;23.87;37.58;100716.72;5218630;28;20035;-90
2023/07/04 13:35:35;;;;;;;1.38;1.27;;;;;;;23.92;36.26;100723.56;5184108;28;20819;-88